Time;durP1;ratioP1;P1;durP2;ratioP2;P2;SDS_P1;SDS_P2;PMS_P1;PMS_P2;Temp;Humidity;BMP_temperature;BMP_pressure;BME280_temperature;BME280_humidity;BME280_pressure;Samples;Min_cycle;Max_cycle;Signal;HPM_P1;HPM_P2
2023/01/21 00:01:57;;;;;;;12.83;7.60;;;;;;;;;;5083603;28;20284;-58
2023/01/21 00:04:23;;;;;;;10.90;7.73;;;;;;;;;;5087181;28;20231;-58
2023/01/21 00:06:49;;;;;;;12.10;7.53;;;;;;;;;;5084588;28;20309;-58
2023/01/21 00:09:17;;;;;;;9.70;7.40;;;;;;;;;;5085638;28;20294;-58
2023/01/21 00:11:44;;;;;;;9.37;7.23;;;;;;;;;;5078685;28;20237;-56
2023/01/21 00:14:10;;;;;;;13.00;8.27;;;;;;;;;;5078813;28;20238;-57
2023/01/21 00:16:37;;;;;;;13.00;7.97;;;;;;;;;;5083501;28;20236;-57
2023/01/21 00:19:03;;;;;;;13.30;7.53;;;;;;;;;;5080284;28;20234;-59
2023/01/21 00:21:29;;;;;;;10.87;8.00;;;;;;;;;;5079256;28;20348;-57
2023/01/21 00:23:56;;;;;;;12.17;8.03;;;;;;;;;;5077908;28;20233;-58
2023/01/21 00:26:24;;;;;;;12.53;7.47;;;;;;;;;;5081802;28;20324;-57
2023/01/21 00:28:50;;;;;;;9.50;6.80;;;;;;;;;;5058678;28;20312;-58
2023/01/21 00:31:17;;;;;;;11.80;7.50;;;;;;;;;;5081849;28;20234;-57
2023/01/21 00:33:43;;;;;;;13.67;7.63;;;;;;;;;;5082948;28;20327;-59
2023/01/21 00:36:10;;;;;;;8.87;7.03;;;;;;;;;;5082736;28;20730;-57
2023/01/21 00:38:37;;;;;;;10.87;7.10;;;;;;;;;;5082589;28;20308;-56
2023/01/21 00:41:05;;;;;;;9.00;7.47;;;;;;;;;;5080070;28;20276;-57
2023/01/21 00:43:32;;;;;;;10.57;7.13;;;;;;;;;;5076047;28;20742;-57
2023/01/21 00:45:59;;;;;;;7.07;5.80;;;;;;;;;;5077529;28;20904;-57
2023/01/21 00:48:27;;;;;;;8.53;5.70;;;;;;;;;;5080970;28;20322;-58
2023/01/21 00:50:54;;;;;;;9.20;5.97;;;;;;;;;;5079658;28;20237;-58
2023/01/21 00:53:21;;;;;;;9.07;7.30;;;;;;;;;;5078578;28;20240;-57
2023/01/21 00:55:47;;;;;;;10.77;7.20;;;;;;;;;;5082196;28;20238;-57
2023/01/21 00:58:14;;;;;;;12.10;7.13;;;;;;;;;;5083189;28;20233;-57
2023/01/21 01:00:41;;;;;;;10.87;5.93;;;;;;;;;;5077448;28;20284;-57
2023/01/21 01:03:08;;;;;;;11.07;6.73;;;;;;;;;;5086146;28;20244;-57
2023/01/21 01:05:35;;;;;;;9.90;6.20;;;;;;;;;;5081235;28;20234;-57
2023/01/21 01:08:02;;;;;;;9.87;6.20;;;;;;;;;;5081223;28;20229;-57
2023/01/21 01:10:28;;;;;;;9.40;6.30;;;;;;;;;;5084478;28;20779;-57
2023/01/21 01:12:55;;;;;;;8.60;6.03;;;;;;;;;;5079096;28;20308;-57
2023/01/21 01:15:21;;;;;;;9.50;5.70;;;;;;;;;;5083133;28;20230;-57
2023/01/21 01:17:49;;;;;;;8.73;6.47;;;;;;;;;;5074529;28;20234;-58
2023/01/21 01:20:15;;;;;;;8.90;6.57;;;;;;;;;;5083853;28;20232;-57
2023/01/21 01:22:42;;;;;;;9.73;6.20;;;;;;;;;;5082960;28;20460;-57
2023/01/21 01:25:09;;;;;;;7.53;5.97;;;;;;;;;;5084265;28;20229;-57
2023/01/21 01:27:35;;;;;;;8.23;6.23;;;;;;;;;;5078153;28;20249;-58
2023/01/21 01:30:01;;;;;;;8.87;6.30;;;;;;;;;;5075509;28;20238;-58
2023/01/21 01:32:28;;;;;;;7.00;5.90;;;;;;;;;;5075455;28;20711;-59
2023/01/21 01:34:56;;;;;;;9.90;6.17;;;;;;;;;;5065165;28;20299;-57
2023/01/21 01:37:22;;;;;;;9.20;6.43;;;;;;;;;;5071115;28;20241;-58
2023/01/21 01:39:49;;;;;;;7.40;6.17;;;;;;;;;;5076645;28;20311;-58
2023/01/21 01:42:16;;;;;;;9.93;5.67;;;;;;;;;;5082894;28;20233;-58
2023/01/21 01:44:54;;;;;;;10.50;7.17;;;;;;;;;;5081030;28;20324;-58
2023/01/21 01:47:21;;;;;;;7.27;6.10;;;;;;;;;;5076442;28;20234;-57
2023/01/21 01:49:48;;;;;;;8.03;6.63;;;;;;;;;;5075611;28;20253;-59
2023/01/21 01:52:17;;;;;;;7.50;5.97;;;;;;;;;;5074262;28;20253;-56
2023/01/21 01:54:45;;;;;;;10.17;5.77;;;;;;;;;;5081280;28;20280;-57
2023/01/21 01:57:13;;;;;;;5.97;4.97;;;;;;;;;;5090393;28;20236;-57
2023/01/21 01:59:40;;;;;;;7.87;5.00;;;;;;;;;;5091479;28;20285;-56
2023/01/21 02:02:07;;;;;;;7.57;5.87;;;;;;;;;;5085319;28;20314;-57
2023/01/21 02:04:37;;;;;;;8.60;5.53;;;;;;;;;;5074944;28;20316;-57
2023/01/21 02:07:04;;;;;;;8.07;5.17;;;;;;;;;;5076090;28;20287;-57
2023/01/21 02:09:32;;;;;;;9.00;6.03;;;;;;;;;;5067235;28;20317;-58
2023/01/21 02:11:59;;;;;;;8.60;6.63;;;;;;;;;;5079436;28;20718;-57
2023/01/21 02:14:26;;;;;;;9.43;6.13;;;;;;;;;;5077594;28;20257;-57
2023/01/21 02:17:07;;;;;;;13.53;7.53;;;;;;;;;;5082407;28;20745;-57
2023/01/21 02:19:41;;;;;;;13.57;8.70;;;;;;;;;;5080782;28;20290;-57
2023/01/21 02:22:13;;;;;;;14.37;8.43;;;;;;;;;;5084587;28;20230;-57
2023/01/21 02:24:58;;;;;;;12.40;8.50;;;;;;;;;;5075291;28;20258;-57
2023/01/21 02:27:45;;;;;;;13.57;8.83;;;;;;;;;;5079892;28;20335;-57
2023/01/21 02:30:27;;;;;;;15.53;9.70;;;;;;;;;;5080534;28;20230;-57
2023/01/21 02:33:09;;;;;;;18.83;10.93;;;;;;;;;;5076755;28;20232;-58
2023/01/21 02:35:39;;;;;;;18.73;10.90;;;;;;;;;;5078552;28;20233;-58
2023/01/21 02:38:10;;;;;;;17.47;10.13;;;;;;;;;;5083707;28;20616;-57
2023/01/21 02:40:38;;;;;;;18.63;11.10;;;;;;;;;;5088109;28;20351;-57
2023/01/21 02:43:07;;;;;;;13.43;10.10;;;;;;;;;;5081870;28;20279;-57
2023/01/21 02:45:38;;;;;;;16.53;10.37;;;;;;;;;;5080652;28;20234;-57
2023/01/21 02:48:07;;;;;;;14.87;10.37;;;;;;;;;;5087101;28;20321;-57
2023/01/21 02:50:35;;;;;;;16.17;9.43;;;;;;;;;;5077385;28;20252;-57
2023/01/21 02:53:02;;;;;;;11.63;9.10;;;;;;;;;;5085492;28;20608;-57
2023/01/21 02:55:30;;;;;;;13.13;8.27;;;;;;;;;;5084770;28;20245;-58
2023/01/21 02:57:59;;;;;;;12.30;8.50;;;;;;;;;;5065908;28;20329;-56
2023/01/21 03:00:27;;;;;;;12.47;8.33;;;;;;;;;;5081799;28;20298;-58
2023/01/21 03:03:03;;;;;;;12.43;9.03;;;;;;;;;;5081578;28;20236;-59
2023/01/21 03:05:35;;;;;;;12.53;8.90;;;;;;;;;;5084325;28;20257;-56
2023/01/21 03:08:05;;;;;;;15.80;9.60;;;;;;;;;;5085725;28;20795;-56
2023/01/21 03:10:33;;;;;;;14.47;9.47;;;;;;;;;;5085690;28;20230;-56
2023/01/21 03:13:01;;;;;;;12.23;8.50;;;;;;;;;;5069441;28;20310;-56
2023/01/21 03:18:18;;;;;;;12.47;8.00;;;;;;;;;;5071165;28;20249;-57
2023/01/21 03:20:47;;;;;;;11.20;8.53;;;;;;;;;;5083982;28;20349;-57
2023/01/21 03:23:15;;;;;;;12.30;7.83;;;;;;;;;;5084476;28;20248;-56
2023/01/21 03:25:42;;;;;;;11.43;7.80;;;;;;;;;;5077141;28;20242;-57
2023/01/21 03:28:09;;;;;;;9.83;7.27;;;;;;;;;;5078726;28;20721;-57
2023/01/21 03:30:40;;;;;;;10.97;7.70;;;;;;;;;;5084532;28;20924;-58
2023/01/21 03:33:07;;;;;;;12.67;9.13;;;;;;;;;;5070430;28;20272;-58
2023/01/21 03:35:34;;;;;;;10.37;7.83;;;;;;;;;;5078903;28;20827;-58
2023/01/21 03:38:03;;;;;;;11.43;7.33;;;;;;;;;;5087416;28;20233;-58
2023/01/21 03:40:32;;;;;;;11.87;7.03;;;;;;;;;;5084230;28;20743;-58
2023/01/21 03:42:59;;;;;;;7.77;6.30;;;;;;;;;;5081325;28;20234;-58
2023/01/21 03:45:31;;;;;;;10.73;7.17;;;;;;;;;;5087063;28;20237;-57
2023/01/21 03:47:59;;;;;;;9.40;7.67;;;;;;;;;;5078853;28;20226;-58
2023/01/21 03:50:27;;;;;;;11.40;7.43;;;;;;;;;;5085478;28;20238;-58
2023/01/21 03:52:53;;;;;;;11.70;8.00;;;;;;;;;;5081641;28;20263;-58
2023/01/21 03:55:21;;;;;;;8.93;6.57;;;;;;;;;;5080434;28;20237;-57
2023/01/21 03:57:48;;;;;;;7.77;6.37;;;;;;;;;;5085522;28;20320;-57
2023/01/21 04:00:14;;;;;;;12.67;8.13;;;;;;;;;;5068572;28;21585;-57
2023/01/21 04:02:41;;;;;;;8.83;6.93;;;;;;;;;;5076567;28;20600;-57
2023/01/21 04:05:08;;;;;;;11.83;7.53;;;;;;;;;;5079888;28;20241;-56
2023/01/21 04:07:34;;;;;;;10.60;6.77;;;;;;;;;;5082746;28;20250;-56
2023/01/21 04:10:00;;;;;;;10.20;6.00;;;;;;;;;;5078632;28;20703;-57
2023/01/21 04:12:28;;;;;;;11.87;6.97;;;;;;;;;;5085405;28;20241;-57
2023/01/21 04:14:55;;;;;;;9.00;6.93;;;;;;;;;;5086385;28;20235;-58
2023/01/21 04:17:21;;;;;;;11.87;6.23;;;;;;;;;;5076277;28;20231;-57
2023/01/21 04:19:47;;;;;;;7.43;6.20;;;;;;;;;;5066056;28;20234;-57
2023/01/21 04:22:14;;;;;;;8.93;5.80;;;;;;;;;;5083929;28;20230;-57
2023/01/21 04:24:40;;;;;;;8.30;5.23;;;;;;;;;;5076855;28;20240;-57
2023/01/21 04:27:06;;;;;;;9.03;6.07;;;;;;;;;;5084021;28;20310;-59
2023/01/21 04:29:34;;;;;;;8.10;5.33;;;;;;;;;;5067590;28;20239;-57
2023/01/21 04:32:01;;;;;;;13.23;6.40;;;;;;;;;;5075765;28;20601;-57
2023/01/21 04:34:27;;;;;;;8.37;6.13;;;;;;;;;;5057477;28;20243;-57
2023/01/21 04:36:53;;;;;;;8.07;5.73;;;;;;;;;;5055540;28;20319;-57
2023/01/21 04:39:20;;;;;;;7.83;5.70;;;;;;;;;;5059347;28;20333;-58
2023/01/21 04:41:46;;;;;;;9.07;5.73;;;;;;;;;;5080764;28;20723;-57
2023/01/21 04:44:13;;;;;;;9.30;5.17;;;;;;;;;;5079817;28;20237;-57
2023/01/21 04:46:40;;;;;;;9.30;5.83;;;;;;;;;;5081755;28;20225;-56
2023/01/21 04:49:07;;;;;;;7.10;5.30;;;;;;;;;;5081437;28;20233;-56
2023/01/21 04:51:33;;;;;;;6.57;5.20;;;;;;;;;;5086589;28;20246;-57
2023/01/21 04:54:00;;;;;;;11.27;5.63;;;;;;;;;;5080101;28;20750;-59
2023/01/21 04:56:26;;;;;;;7.60;5.43;;;;;;;;;;5085309;28;20235;-56
2023/01/21 04:58:53;;;;;;;10.37;5.63;;;;;;;;;;5080241;28;20257;-57
2023/01/21 05:01:19;;;;;;;6.63;5.03;;;;;;;;;;5079863;28;20623;-56
2023/01/21 05:03:47;;;;;;;8.47;5.90;;;;;;;;;;5084167;28;20317;-56
2023/01/21 05:06:13;;;;;;;6.40;5.07;;;;;;;;;;5081201;28;20244;-56
2023/01/21 05:08:39;;;;;;;10.03;5.33;;;;;;;;;;5075394;28;20313;-56
2023/01/21 05:11:07;;;;;;;9.53;6.10;;;;;;;;;;5081274;28;20441;-56
2023/01/21 05:13:33;;;;;;;8.47;5.67;;;;;;;;;;5075346;28;20351;-56
2023/01/21 05:16:02;;;;;;;8.37;5.77;;;;;;;;;;5085081;28;20280;-58
2023/01/21 05:18:29;;;;;;;8.53;6.27;;;;;;;;;;5081441;28;20236;-57
2023/01/21 05:20:57;;;;;;;7.50;5.40;;;;;;;;;;5078562;28;20233;-59
2023/01/21 05:23:23;;;;;;;8.27;5.53;;;;;;;;;;5082388;28;20226;-58
2023/01/21 05:25:49;;;;;;;7.07;5.40;;;;;;;;;;5081370;28;20267;-58
2023/01/21 05:28:16;;;;;;;7.23;4.83;;;;;;;;;;5079000;28;20241;-58
2023/01/21 05:30:42;;;;;;;9.37;5.70;;;;;;;;;;5075762;28;20227;-59
2023/01/21 05:33:09;;;;;;;8.73;5.50;;;;;;;;;;5085050;28;20229;-58
2023/01/21 05:35:35;;;;;;;6.73;4.97;;;;;;;;;;5055954;28;20233;-58
2023/01/21 05:38:03;;;;;;;7.20;5.37;;;;;;;;;;5077048;28;20324;-58
2023/01/21 05:40:30;;;;;;;5.93;4.93;;;;;;;;;;5075623;28;20230;-58
2023/01/21 05:42:56;;;;;;;9.33;5.87;;;;;;;;;;5059961;28;20250;-59
2023/01/21 05:45:23;;;;;;;6.27;4.87;;;;;;;;;;5077810;28;20247;-58
2023/01/21 05:47:49;;;;;;;8.37;5.80;;;;;;;;;;5084417;28;20234;-56
2023/01/21 05:50:16;;;;;;;8.80;5.73;;;;;;;;;;5081722;28;22475;-56
2023/01/21 05:52:42;;;;;;;9.37;6.10;;;;;;;;;;5086335;28;20595;-59
2023/01/21 05:55:10;;;;;;;7.97;5.17;;;;;;;;;;5083935;28;20237;-57
2023/01/21 05:57:37;;;;;;;8.20;5.17;;;;;;;;;;5079383;28;20230;-57
2023/01/21 06:00:03;;;;;;;6.30;5.20;;;;;;;;;;5089996;28;20328;-57
2023/01/21 06:02:30;;;;;;;7.63;5.83;;;;;;;;;;5088270;28;20227;-57
2023/01/21 06:04:56;;;;;;;8.97;5.70;;;;;;;;;;5084274;28;20286;-61
2023/01/21 06:07:22;;;;;;;8.07;5.50;;;;;;;;;;5086761;28;20238;-56
2023/01/21 06:09:49;;;;;;;8.10;5.67;;;;;;;;;;5083047;28;20318;-60
2023/01/21 06:12:17;;;;;;;7.37;6.03;;;;;;;;;;5081632;28;20242;-58
2023/01/21 06:14:43;;;;;;;10.13;6.40;;;;;;;;;;5083318;28;20223;-59
2023/01/21 06:17:10;;;;;;;9.20;6.73;;;;;;;;;;5087734;28;20235;-58
2023/01/21 06:19:36;;;;;;;7.30;5.77;;;;;;;;;;5078634;28;20233;-57
2023/01/21 06:22:02;;;;;;;8.37;6.20;;;;;;;;;;5081731;28;20245;-57
2023/01/21 06:24:29;;;;;;;8.57;6.37;;;;;;;;;;5084372;28;20243;-57
2023/01/21 06:26:55;;;;;;;9.43;6.77;;;;;;;;;;5072157;28;20230;-57
2023/01/21 06:29:23;;;;;;;9.43;6.63;;;;;;;;;;5079902;28;20233;-57
2023/01/21 06:31:49;;;;;;;10.90;7.53;;;;;;;;;;5085478;28;20310;-58
2023/01/21 06:34:16;;;;;;;12.83;6.97;;;;;;;;;;5083324;28;20232;-57
2023/01/21 06:36:42;;;;;;;12.50;7.90;;;;;;;;;;5077196;28;20230;-57
2023/01/21 06:39:09;;;;;;;10.67;7.50;;;;;;;;;;5081746;28;20291;-58
2023/01/21 06:41:36;;;;;;;11.93;7.10;;;;;;;;;;5087325;28;20791;-57
2023/01/21 06:44:02;;;;;;;13.30;8.27;;;;;;;;;;5083101;28;20350;-57
2023/01/21 06:46:30;;;;;;;13.10;8.67;;;;;;;;;;5085567;28;20735;-58
2023/01/21 06:48:56;;;;;;;10.77;7.97;;;;;;;;;;5086594;28;20230;-57
2023/01/21 06:51:23;;;;;;;12.33;9.23;;;;;;;;;;5082095;28;20223;-58
2023/01/21 06:53:49;;;;;;;10.53;7.73;;;;;;;;;;5078769;28;20239;-57
2023/01/21 06:56:15;;;;;;;14.07;8.20;;;;;;;;;;5078858;28;20248;-57
2023/01/21 06:58:42;;;;;;;9.37;7.23;;;;;;;;;;5083455;28;20339;-57
2023/01/21 07:01:08;;;;;;;12.10;7.47;;;;;;;;;;5074614;28;20603;-57
2023/01/21 07:03:36;;;;;;;14.20;8.47;;;;;;;;;;5081408;28;20242;-57
2023/01/21 07:06:02;;;;;;;15.47;9.50;;;;;;;;;;5087005;28;20227;-57
2023/01/21 07:08:29;;;;;;;18.97;9.50;;;;;;;;;;5083460;28;20236;-58
2023/01/21 07:10:55;;;;;;;14.40;9.80;;;;;;;;;;5079513;28;20228;-58
2023/01/21 07:13:22;;;;;;;17.10;10.20;;;;;;;;;;5082914;28;20229;-57
2023/01/21 07:15:48;;;;;;;11.83;8.77;;;;;;;;;;5079646;28;20727;-58
2023/01/21 07:18:15;;;;;;;12.63;8.57;;;;;;;;;;5080008;28;20233;-57
2023/01/21 07:20:42;;;;;;;13.43;9.00;;;;;;;;;;5085813;28;20255;-57
2023/01/21 07:23:09;;;;;;;14.77;10.40;;;;;;;;;;5070281;28;20238;-58
2023/01/21 07:25:36;;;;;;;13.30;9.37;;;;;;;;;;5071384;28;20746;-58
2023/01/21 07:28:03;;;;;;;16.57;11.50;;;;;;;;;;5079988;28;20320;-58
2023/01/21 07:30:29;;;;;;;14.93;10.30;;;;;;;;;;5085412;28;20941;-58
2023/01/21 07:32:55;;;;;;;16.23;10.53;;;;;;;;;;5084419;28;20237;-58
2023/01/21 07:35:22;;;;;;;16.83;10.60;;;;;;;;;;5077994;28;20248;-58
2023/01/21 07:37:49;;;;;;;15.53;10.37;;;;;;;;;;5082400;28;20236;-58
2023/01/21 07:40:16;;;;;;;14.43;10.37;;;;;;;;;;5083533;28;20222;-58
2023/01/21 07:42:42;;;;;;;15.53;10.43;;;;;;;;;;5079517;28;20235;-57
2023/01/21 07:45:09;;;;;;;15.70;10.10;;;;;;;;;;5085213;28;20320;-58
2023/01/21 07:47:36;;;;;;;15.67;10.73;;;;;;;;;;5082836;28;20325;-58
2023/01/21 07:50:07;;;;;;;14.87;10.50;;;;;;;;;;5071566;28;20320;-57
2023/01/21 07:52:33;;;;;;;16.20;11.10;;;;;;;;;;5081097;28;20237;-58
2023/01/21 07:55:01;;;;;;;13.23;9.30;;;;;;;;;;5079987;28;20247;-58
2023/01/21 07:57:28;;;;;;;16.83;11.60;;;;;;;;;;5087032;28;20233;-57
2023/01/21 07:59:54;;;;;;;14.77;10.80;;;;;;;;;;5081635;28;20252;-58
2023/01/21 08:02:20;;;;;;;14.90;11.37;;;;;;;;;;5085828;28;20312;-58
2023/01/21 08:04:47;;;;;;;13.30;10.63;;;;;;;;;;5081526;28;20321;-58
2023/01/21 08:07:13;;;;;;;17.57;11.97;;;;;;;;;;5080009;28;20769;-59
2023/01/21 08:09:40;;;;;;;12.90;10.40;;;;;;;;;;5084215;28;20317;-57
2023/01/21 08:12:08;;;;;;;17.50;10.47;;;;;;;;;;5084223;28;20313;-57
2023/01/21 08:14:37;;;;;;;17.90;11.60;;;;;;;;;;5080971;28;20236;-57
2023/01/21 08:17:03;;;;;;;13.83;10.50;;;;;;;;;;5083630;28;20693;-57
2023/01/21 08:19:30;;;;;;;16.37;11.20;;;;;;;;;;5069180;28;20295;-57
2023/01/21 08:21:56;;;;;;;15.43;11.33;;;;;;;;;;5076825;28;20317;-58
2023/01/21 08:24:23;;;;;;;15.10;11.53;;;;;;;;;;5078210;28;20233;-58
2023/01/21 08:26:49;;;;;;;13.20;10.23;;;;;;;;;;5076163;28;20624;-60
2023/01/21 08:29:17;;;;;;;16.10;11.87;;;;;;;;;;5076349;28;20238;-58
2023/01/21 08:31:43;;;;;;;12.60;10.40;;;;;;;;;;5077685;28;20289;-57
2023/01/21 08:34:10;;;;;;;14.10;10.70;;;;;;;;;;5079298;28;20229;-57
2023/01/21 08:36:38;;;;;;;15.40;10.77;;;;;;;;;;5078794;28;20314;-57
2023/01/21 08:39:05;;;;;;;15.03;11.70;;;;;;;;;;5078576;28;20311;-57
2023/01/21 08:41:31;;;;;;;13.60;10.70;;;;;;;;;;5086628;28;20696;-58
2023/01/21 08:43:58;;;;;;;17.87;11.97;;;;;;;;;;5068909;28;20237;-58
2023/01/21 08:46:25;;;;;;;15.20;10.70;;;;;;;;;;5075858;28;20260;-59
2023/01/21 08:48:52;;;;;;;16.53;10.87;;;;;;;;;;5084035;28;20237;-57
2023/01/21 08:51:18;;;;;;;14.07;10.47;;;;;;;;;;5078998;28;20242;-57
2023/01/21 08:53:45;;;;;;;14.70;10.10;;;;;;;;;;5079118;28;20317;-58
2023/01/21 08:56:11;;;;;;;12.87;10.00;;;;;;;;;;5075658;28;20229;-58
2023/01/21 08:58:37;;;;;;;14.40;10.97;;;;;;;;;;5079903;28;20261;-57
2023/01/21 09:01:07;;;;;;;13.27;10.03;;;;;;;;;;5074190;28;20318;-58
2023/01/21 09:03:35;;;;;;;13.50;9.87;;;;;;;;;;5075560;28;20333;-58
2023/01/21 09:06:02;;;;;;;13.17;10.13;;;;;;;;;;5072814;28;20320;-58
2023/01/21 09:08:28;;;;;;;15.23;11.77;;;;;;;;;;5079038;28;20234;-59
2023/01/21 09:11:03;;;;;;;16.20;10.47;;;;;;;;;;5071068;28;20724;-59
2023/01/21 09:13:30;;;;;;;15.23;10.13;;;;;;;;;;5069383;28;20232;-58
2023/01/21 09:15:57;;;;;;;12.27;9.33;;;;;;;;;;5074210;28;20237;-58
2023/01/21 09:18:24;;;;;;;14.00;9.60;;;;;;;;;;5081441;28;20249;-58
2023/01/21 09:20:52;;;;;;;12.80;9.50;;;;;;;;;;5082504;28;20235;-57
2023/01/21 09:23:24;;;;;;;15.03;9.93;;;;;;;;;;5076886;28;20329;-58
2023/01/21 09:25:51;;;;;;;13.17;10.20;;;;;;;;;;5076923;28;20306;-58
2023/01/21 09:28:17;;;;;;;16.33;11.37;;;;;;;;;;5080511;28;20294;-58
2023/01/21 09:30:44;;;;;;;14.67;9.90;;;;;;;;;;5080829;28;20229;-59
2023/01/21 09:33:10;;;;;;;15.03;10.67;;;;;;;;;;5084228;28;20248;-58
2023/01/21 09:35:37;;;;;;;13.30;9.40;;;;;;;;;;5085570;27;20312;-58
2023/01/21 09:38:04;;;;;;;16.47;10.83;;;;;;;;;;5086945;28;20317;-59
2023/01/21 09:40:31;;;;;;;13.97;10.93;;;;;;;;;;5082856;28;20261;-58
2023/01/21 09:42:58;;;;;;;14.23;10.40;;;;;;;;;;5080641;28;20229;-58
2023/01/21 09:45:24;;;;;;;31.77;11.83;;;;;;;;;;5079648;28;20240;-58
2023/01/21 09:47:53;;;;;;;15.87;10.70;;;;;;;;;;5082075;28;20233;-58
2023/01/21 09:50:20;;;;;;;17.20;10.77;;;;;;;;;;5085374;28;20228;-59
2023/01/21 09:52:48;;;;;;;15.93;10.90;;;;;;;;;;5088123;28;20233;-59
2023/01/21 09:55:16;;;;;;;17.67;11.17;;;;;;;;;;5075873;28;20258;-58
2023/01/21 09:57:57;;;;;;;18.17;10.13;;;;;;;;;;5085129;28;20229;-59
2023/01/21 10:00:31;;;;;;;11.70;10.17;;;;;;;;;;5082387;28;20229;-59
2023/01/21 10:03:00;;;;;;;16.53;10.83;;;;;;;;;;5091207;28;20230;-58
2023/01/21 10:05:50;;;;;;;15.30;10.20;;;;;;;;;;5073022;28;20708;-58
2023/01/21 10:08:22;;;;;;;13.10;9.23;;;;;;;;;;5085786;28;20230;-58
2023/01/21 10:10:51;;;;;;;16.73;9.73;;;;;;;;;;5079081;28;20766;-58
2023/01/21 10:13:30;;;;;;;12.33;9.37;;;;;;;;;;5060205;28;20235;-59
2023/01/21 10:16:00;;;;;;;16.83;9.60;;;;;;;;;;5086227;28;20239;-59
2023/01/21 10:18:28;;;;;;;15.67;11.60;;;;;;;;;;5081942;28;20704;-57
2023/01/21 10:20:56;;;;;;;14.93;10.40;;;;;;;;;;5081778;28;20268;-58
2023/01/21 10:23:24;;;;;;;14.83;10.10;;;;;;;;;;5078593;28;20249;-59
2023/01/21 10:25:52;;;;;;;16.60;10.57;;;;;;;;;;5085424;28;20238;-58
2023/01/21 10:28:21;;;;;;;15.13;10.57;;;;;;;;;;5086913;28;20230;-58
2023/01/21 10:30:49;;;;;;;12.07;9.20;;;;;;;;;;5088962;28;20970;-59
2023/01/21 10:33:17;;;;;;;12.00;9.00;;;;;;;;;;5086863;28;20229;-58
2023/01/21 10:35:50;;;;;;;13.80;10.27;;;;;;;;;;5075775;28;20321;-57
2023/01/21 10:38:18;;;;;;;14.30;10.03;;;;;;;;;;5074475;28;20234;-58
2023/01/21 10:40:48;;;;;;;13.97;9.33;;;;;;;;;;5081314;28;20264;-58
2023/01/21 10:43:23;;;;;;;15.17;10.30;;;;;;;;;;5081250;28;20330;-58
2023/01/21 10:45:54;;;;;;;14.53;10.43;;;;;;;;;;5076271;28;25128;-57
2023/01/21 10:48:26;;;;;;;14.40;11.07;;;;;;;;;;5084656;28;20234;-58
2023/01/21 10:50:56;;;;;;;15.83;11.10;;;;;;;;;;5081888;28;20241;-57
2023/01/21 10:53:24;;;;;;;14.23;9.63;;;;;;;;;;5080134;28;20245;-58
2023/01/21 10:56:04;;;;;;;13.67;9.10;;;;;;;;;;5078433;28;20319;-57
2023/01/21 10:58:33;;;;;;;13.50;9.00;;;;;;;;;;5089819;28;20226;-58
2023/01/21 11:01:01;;;;;;;12.33;8.77;;;;;;;;;;5084323;28;20626;-56
2023/01/21 11:03:30;;;;;;;12.30;9.53;;;;;;;;;;5079408;28;20722;-58
2023/01/21 11:05:58;;;;;;;13.47;10.37;;;;;;;;;;5062037;28;20241;-57
2023/01/21 11:08:26;;;;;;;12.37;8.60;;;;;;;;;;5080679;28;20241;-58
2023/01/21 11:10:54;;;;;;;14.67;8.87;;;;;;;;;;5075096;28;20238;-56
2023/01/21 11:13:21;;;;;;;13.97;9.30;;;;;;;;;;5073118;28;20245;-57
2023/01/21 11:15:51;;;;;;;12.30;8.53;;;;;;;;;;5073693;28;20360;-57
2023/01/21 11:18:25;;;;;;;11.63;8.73;;;;;;;;;;5086221;28;20764;-57
2023/01/21 11:20:54;;;;;;;11.07;8.67;;;;;;;;;;5086623;28;20268;-58
2023/01/21 11:23:26;;;;;;;12.67;9.17;;;;;;;;;;5081309;28;20264;-58
2023/01/21 11:26:00;;;;;;;13.03;9.10;;;;;;;;;;5086939;28;20241;-58
2023/01/21 11:28:28;;;;;;;10.00;8.60;;;;;;;;;;5086470;28;20228;-58
2023/01/21 11:31:04;;;;;;;11.90;8.43;;;;;;;;;;5083948;28;20245;-58
2023/01/21 11:33:30;;;;;;;11.80;8.53;;;;;;;;;;5086783;28;21214;-58
2023/01/21 11:36:08;;;;;;;14.57;9.57;;;;;;;;;;5075577;28;20246;-58
2023/01/21 11:38:36;;;;;;;11.97;8.93;;;;;;;;;;5076373;28;20268;-57
2023/01/21 11:41:03;;;;;;;13.83;9.83;;;;;;;;;;5088292;28;20257;-58
2023/01/21 11:43:34;;;;;;;13.63;9.03;;;;;;;;;;5081859;28;20233;-58
2023/01/21 11:46:00;;;;;;;10.47;8.30;;;;;;;;;;5082312;28;20232;-57
2023/01/21 11:48:28;;;;;;;12.57;8.53;;;;;;;;;;5076527;28;20236;-58
2023/01/21 11:51:05;;;;;;;9.33;8.10;;;;;;;;;;5083803;28;20233;-58
2023/01/21 11:53:32;;;;;;;13.00;8.47;;;;;;;;;;5087942;28;20817;-59
2023/01/21 11:56:00;;;;;;;11.37;8.57;;;;;;;;;;5076239;28;20300;-59
2023/01/21 11:58:29;;;;;;;10.27;7.93;;;;;;;;;;5073286;28;21138;-59
2023/01/21 12:00:56;;;;;;;13.80;8.57;;;;;;;;;;5083571;28;20313;-59
2023/01/21 12:03:25;;;;;;;10.83;8.07;;;;;;;;;;5082253;28;20229;-58
2023/01/21 12:05:53;;;;;;;12.70;8.67;;;;;;;;;;5086974;28;20771;-59
2023/01/21 12:08:21;;;;;;;14.07;9.03;;;;;;;;;;5073804;28;20253;-59
2023/01/21 12:10:48;;;;;;;12.10;7.57;;;;;;;;;;5080350;28;20312;-59
2023/01/21 12:13:17;;;;;;;8.90;6.50;;;;;;;;;;5081063;28;20256;-59
2023/01/21 12:16:02;;;;;;;15.97;7.77;;;;;;;;;;5082607;28;20834;-59
2023/01/21 12:18:33;;;;;;;8.73;6.80;;;;;;;;;;5079440;28;20240;-58
2023/01/21 12:21:03;;;;;;;12.97;7.83;;;;;;;;;;5071292;28;20601;-58
2023/01/21 12:23:37;;;;;;;11.13;7.43;;;;;;;;;;5073742;28;20325;-57
2023/01/21 12:26:08;;;;;;;12.23;7.27;;;;;;;;;;5068082;28;20333;-58
2023/01/21 12:28:52;;;;;;;8.67;6.60;;;;;;;;;;5072603;28;20225;-58
2023/01/21 12:31:23;;;;;;;11.00;7.53;;;;;;;;;;5067410;28;20236;-57
2023/01/21 12:33:53;;;;;;;9.53;6.77;;;;;;;;;;5078393;28;20229;-58
2023/01/21 12:36:25;;;;;;;9.23;6.80;;;;;;;;;;5075293;28;20236;-58
2023/01/21 12:39:05;;;;;;;7.97;5.73;;;;;;;;;;5080873;28;20227;-57
2023/01/21 12:41:33;;;;;;;8.63;5.90;;;;;;;;;;5077279;28;20629;-59
2023/01/21 12:44:04;;;;;;;9.03;6.67;;;;;;;;;;5074720;28;20256;-58
2023/01/21 12:46:33;;;;;;;8.33;6.57;;;;;;;;;;5075519;28;20240;-58
2023/01/21 12:49:04;;;;;;;6.87;5.47;;;;;;;;;;5074651;28;20317;-57
2023/01/21 12:51:37;;;;;;;7.97;5.57;;;;;;;;;;5069139;28;20290;-58
2023/01/21 12:54:06;;;;;;;7.03;5.67;;;;;;;;;;5076063;28;20230;-58
2023/01/21 12:56:34;;;;;;;8.93;6.93;;;;;;;;;;5075310;28;20231;-58
2023/01/21 12:59:04;;;;;;;7.67;5.37;;;;;;;;;;5082721;28;20238;-59
2023/01/21 13:01:43;;;;;;;7.27;5.80;;;;;;;;;;5079356;28;20245;-58
2023/01/21 13:04:17;;;;;;;5.73;4.67;;;;;;;;;;5079000;28;20230;-59
2023/01/21 13:06:49;;;;;;;8.07;5.57;;;;;;;;;;5069120;28;20237;-59
2023/01/21 13:09:18;;;;;;;5.53;4.23;;;;;;;;;;5078230;28;20573;-58
2023/01/21 13:11:49;;;;;;;7.13;5.23;;;;;;;;;;5073822;28;20240;-59
2023/01/21 13:14:21;;;;;;;6.07;4.83;;;;;;;;;;5075460;28;20646;-59
2023/01/21 13:16:49;;;;;;;5.83;4.83;;;;;;;;;;5072306;28;20238;-60
2023/01/21 13:19:16;;;;;;;6.23;4.70;;;;;;;;;;5081748;28;20319;-59
2023/01/21 13:21:47;;;;;;;5.57;4.73;;;;;;;;;;5080739;28;20243;-59
2023/01/21 13:24:16;;;;;;;5.97;4.53;;;;;;;;;;5083753;28;20249;-59
2023/01/21 13:26:46;;;;;;;8.70;6.20;;;;;;;;;;5077884;28;20238;-58
2023/01/21 13:29:16;;;;;;;5.73;4.87;;;;;;;;;;5077449;28;20237;-58
2023/01/21 13:31:46;;;;;;;6.57;4.73;;;;;;;;;;5074887;28;20234;-58
2023/01/21 13:34:19;;;;;;;7.40;5.30;;;;;;;;;;5079301;28;20281;-58
2023/01/21 13:36:53;;;;;;;6.60;5.23;;;;;;;;;;5073381;28;20235;-58
2023/01/21 13:39:25;;;;;;;5.77;5.20;;;;;;;;;;5078008;28;20241;-59
2023/01/21 13:42:02;;;;;;;5.80;4.87;;;;;;;;;;5077579;28;20229;-58
2023/01/21 13:44:40;;;;;;;7.23;4.93;;;;;;;;;;5072237;28;20231;-58
2023/01/21 13:47:11;;;;;;;5.17;4.40;;;;;;;;;;5073183;28;20241;-58
2023/01/21 13:49:44;;;;;;;7.40;4.63;;;;;;;;;;5074883;28;20233;-58
2023/01/21 13:52:13;;;;;;;6.20;4.80;;;;;;;;;;5079011;28;20233;-58
2023/01/21 13:54:53;;;;;;;4.50;4.10;;;;;;;;;;5080358;28;20296;-58
2023/01/21 13:57:26;;;;;;;6.80;4.43;;;;;;;;;;5078538;28;20234;-58
2023/01/21 13:59:55;;;;;;;6.93;4.73;;;;;;;;;;5072003;28;20237;-58
2023/01/21 14:02:24;;;;;;;10.70;4.40;;;;;;;;;;5075282;28;21706;-58
2023/01/21 14:04:54;;;;;;;4.67;3.73;;;;;;;;;;5080404;28;20704;-58
2023/01/21 14:07:25;;;;;;;6.37;3.97;;;;;;;;;;5087718;28;20286;-58
2023/01/21 14:09:55;;;;;;;7.03;4.10;;;;;;;;;;5078230;28;20723;-58
2023/01/21 14:12:28;;;;;;;5.60;3.80;;;;;;;;;;5085770;28;20244;-58
2023/01/21 14:15:11;;;;;;;5.73;4.30;;;;;;;;;;5089940;28;20245;-58
2023/01/21 14:17:48;;;;;;;5.90;4.00;;;;;;;;;;5096655;28;20763;-58
2023/01/21 14:20:23;;;;;;;5.37;3.90;;;;;;;;;;5086205;28;20233;-58
2023/01/21 14:22:56;;;;;;;4.93;3.67;;;;;;;;;;5086506;28;20316;-58
2023/01/21 14:25:31;;;;;;;4.17;3.57;;;;;;;;;;5087417;28;20244;-58
2023/01/21 14:28:03;;;;;;;3.90;2.93;;;;;;;;;;5082803;28;20721;-57
2023/01/21 14:30:31;;;;;;;4.57;3.13;;;;;;;;;;5086644;28;20233;-58
2023/01/21 14:33:01;;;;;;;7.53;3.60;;;;;;;;;;5076271;28;20245;-58
2023/01/21 14:35:32;;;;;;;4.13;3.03;;;;;;;;;;5081249;28;20234;-58
2023/01/21 14:38:06;;;;;;;7.47;3.60;;;;;;;;;;5080509;28;20236;-57
2023/01/21 14:40:35;;;;;;;5.07;3.50;;;;;;;;;;5087799;28;20230;-58
2023/01/21 14:43:02;;;;;;;4.97;3.50;;;;;;;;;;5091243;28;20243;-58
2023/01/21 14:45:44;;;;;;;3.33;2.87;;;;;;;;;;5084178;27;20237;-57